sensor_id;sensor_type;location;lat;lon;timestamp;P1;durP1;ratioP1;P2;durP2;ratioP2
5559;SDS011;2803;47.916;8.074;2024-01-30T00:02:23;1.83;;;1.30;;
5559;SDS011;2803;47.916;8.074;2024-01-30T00:04:51;1.70;;;1.40;;
5559;SDS011;2803;47.916;8.074;2024-01-30T00:07:18;9.77;;;1.50;;
5559;SDS011;2803;47.916;8.074;2024-01-30T00:09:46;6.70;;;1.53;;
5559;SDS011;2803;47.916;8.074;2024-01-30T00:12:13;5.07;;;2.17;;
5559;SDS011;2803;47.916;8.074;2024-01-30T00:14:41;2.30;;;1.60;;
5559;SDS011;2803;47.916;8.074;2024-01-30T00:17:08;3.53;;;1.77;;
5559;SDS011;2803;47.916;8.074;2024-01-30T00:19:34;3.57;;;1.60;;
5559;SDS011;2803;47.916;8.074;2024-01-30T00:22:02;2.03;;;1.23;;
5559;SDS011;2803;47.916;8.074;2024-01-30T00:24:29;2.70;;;1.80;;
5559;SDS011;2803;47.916;8.074;2024-01-30T00:26:56;2.90;;;1.53;;
5559;SDS011;2803;47.916;8.074;2024-01-30T00:29:22;2.80;;;1.60;;
5559;SDS011;2803;47.916;8.074;2024-01-30T00:31:50;3.60;;;1.90;;
5559;SDS011;2803;47.916;8.074;2024-01-30T00:34:17;4.50;;;1.43;;
5559;SDS011;2803;47.916;8.074;2024-01-30T00:36:44;2.10;;;1.27;;
5559;SDS011;2803;47.916;8.074;2024-01-30T00:39:12;2.60;;;1.67;;
5559;SDS011;2803;47.916;8.074;2024-01-30T00:41:40;4.50;;;1.80;;
5559;SDS011;2803;47.916;8.074;2024-01-30T00:44:07;3.60;;;1.67;;
5559;SDS011;2803;47.916;8.074;2024-01-30T00:46:33;2.60;;;1.40;;
5559;SDS011;2803;47.916;8.074;2024-01-30T00:49:00;13.53;;;1.70;;
5559;SDS011;2803;47.916;8.074;2024-01-30T00:51:27;2.37;;;1.27;;
5559;SDS011;2803;47.916;8.074;2024-01-30T00:53:54;7.17;;;1.53;;
5559;SDS011;2803;47.916;8.074;2024-01-30T00:56:22;1.70;;;1.60;;
5559;SDS011;2803;47.916;8.074;2024-01-30T00:58:49;4.80;;;1.60;;
5559;SDS011;2803;47.916;8.074;2024-01-30T01:01:16;5.30;;;1.90;;
5559;SDS011;2803;47.916;8.074;2024-01-30T01:03:42;2.63;;;1.80;;
5559;SDS011;2803;47.916;8.074;2024-01-30T01:06:09;2.73;;;1.60;;
5559;SDS011;2803;47.916;8.074;2024-01-30T01:08:36;3.33;;;1.37;;
5559;SDS011;2803;47.916;8.074;2024-01-30T01:11:02;3.23;;;1.43;;
5559;SDS011;2803;47.916;8.074;2024-01-30T01:13:30;2.83;;;1.10;;
5559;SDS011;2803;47.916;8.074;2024-01-30T01:15:57;3.30;;;1.63;;
5559;SDS011;2803;47.916;8.074;2024-01-30T01:18:23;4.40;;;1.50;;
5559;SDS011;2803;47.916;8.074;2024-01-30T01:20:50;3.87;;;1.50;;
5559;SDS011;2803;47.916;8.074;2024-01-30T01:23:17;2.43;;;1.67;;
5559;SDS011;2803;47.916;8.074;2024-01-30T01:25:43;3.40;;;1.60;;
5559;SDS011;2803;47.916;8.074;2024-01-30T01:28:10;2.37;;;1.33;;
5559;SDS011;2803;47.916;8.074;2024-01-30T01:30:38;3.57;;;1.60;;
5559;SDS011;2803;47.916;8.074;2024-01-30T01:33:04;1.60;;;1.40;;
5559;SDS011;2803;47.916;8.074;2024-01-30T01:35:31;4.33;;;1.80;;
5559;SDS011;2803;47.916;8.074;2024-01-30T01:37:58;3.03;;;1.40;;
5559;SDS011;2803;47.916;8.074;2024-01-30T01:40:25;2.97;;;1.50;;
5559;SDS011;2803;47.916;8.074;2024-01-30T01:42:53;2.17;;;1.53;;
5559;SDS011;2803;47.916;8.074;2024-01-30T01:45:20;3.27;;;1.30;;
5559;SDS011;2803;47.916;8.074;2024-01-30T01:47:50;3.83;;;1.50;;
5559;SDS011;2803;47.916;8.074;2024-01-30T01:50:17;2.20;;;1.53;;
5559;SDS011;2803;47.916;8.074;2024-01-30T01:52:46;2.03;;;1.30;;
5559;SDS011;2803;47.916;8.074;2024-01-30T01:55:14;3.43;;;1.30;;
5559;SDS011;2803;47.916;8.074;2024-01-30T01:57:42;4.63;;;1.30;;
5559;SDS011;2803;47.916;8.074;2024-01-30T02:00:09;3.10;;;1.73;;
5559;SDS011;2803;47.916;8.074;2024-01-30T02:02:37;3.53;;;1.50;;
5559;SDS011;2803;47.916;8.074;2024-01-30T02:05:07;2.27;;;1.17;;
5559;SDS011;2803;47.916;8.074;2024-01-30T02:07:34;1.77;;;1.30;;
5559;SDS011;2803;47.916;8.074;2024-01-30T02:10:01;1.97;;;1.50;;
5559;SDS011;2803;47.916;8.074;2024-01-30T02:12:28;3.20;;;1.20;;
5559;SDS011;2803;47.916;8.074;2024-01-30T02:14:55;4.27;;;1.60;;
5559;SDS011;2803;47.916;8.074;2024-01-30T02:17:22;2.53;;;1.47;;
5559;SDS011;2803;47.916;8.074;2024-01-30T02:19:49;3.53;;;1.60;;
5559;SDS011;2803;47.916;8.074;2024-01-30T02:22:17;2.93;;;1.50;;
5559;SDS011;2803;47.916;8.074;2024-01-30T02:24:44;1.80;;;1.70;;
5559;SDS011;2803;47.916;8.074;2024-01-30T02:27:11;2.50;;;1.30;;
5559;SDS011;2803;47.916;8.074;2024-01-30T02:29:38;2.53;;;1.30;;
5559;SDS011;2803;47.916;8.074;2024-01-30T02:32:04;2.20;;;1.40;;
5559;SDS011;2803;47.916;8.074;2024-01-30T02:34:32;1.73;;;1.40;;
5559;SDS011;2803;47.916;8.074;2024-01-30T02:36:59;1.90;;;1.53;;
5559;SDS011;2803;47.916;8.074;2024-01-30T02:39:27;1.80;;;1.17;;
5559;SDS011;2803;47.916;8.074;2024-01-30T02:41:54;4.73;;;1.37;;
5559;SDS011;2803;47.916;8.074;2024-01-30T02:44:20;2.60;;;1.50;;
5559;SDS011;2803;47.916;8.074;2024-01-30T02:46:47;2.47;;;1.40;;
5559;SDS011;2803;47.916;8.074;2024-01-30T02:49:13;3.17;;;1.40;;
5559;SDS011;2803;47.916;8.074;2024-01-30T02:51:40;1.37;;;1.13;;
5559;SDS011;2803;47.916;8.074;2024-01-30T02:54:07;2.07;;;1.30;;
5559;SDS011;2803;47.916;8.074;2024-01-30T02:56:34;2.50;;;1.40;;
5559;SDS011;2803;47.916;8.074;2024-01-30T02:59:01;1.60;;;1.10;;
5559;SDS011;2803;47.916;8.074;2024-01-30T03:01:28;1.83;;;1.43;;
5559;SDS011;2803;47.916;8.074;2024-01-30T03:03:54;1.60;;;1.13;;
5559;SDS011;2803;47.916;8.074;2024-01-30T03:06:21;3.20;;;1.30;;
5559;SDS011;2803;47.916;8.074;2024-01-30T03:08:48;2.20;;;1.43;;
5559;SDS011;2803;47.916;8.074;2024-01-30T03:11:14;3.20;;;1.40;;
5559;SDS011;2803;47.916;8.074;2024-01-30T03:13:42;2.13;;;1.43;;
5559;SDS011;2803;47.916;8.074;2024-01-30T03:16:09;3.40;;;1.37;;
5559;SDS011;2803;47.916;8.074;2024-01-30T03:18:35;2.93;;;1.43;;
5559;SDS011;2803;47.916;8.074;2024-01-30T03:21:02;3.33;;;1.37;;
5559;SDS011;2803;47.916;8.074;2024-01-30T03:23:29;2.90;;;1.10;;
5559;SDS011;2803;47.916;8.074;2024-01-30T03:25:57;5.07;;;1.90;;
5559;SDS011;2803;47.916;8.074;2024-01-30T03:28:23;2.63;;;1.30;;
5559;SDS011;2803;47.916;8.074;2024-01-30T03:30:51;1.67;;;1.13;;
5559;SDS011;2803;47.916;8.074;2024-01-30T03:33:18;2.80;;;1.80;;
5559;SDS011;2803;47.916;8.074;2024-01-30T03:35:44;3.20;;;1.50;;
5559;SDS011;2803;47.916;8.074;2024-01-30T03:38:11;3.47;;;1.30;;
5559;SDS011;2803;47.916;8.074;2024-01-30T03:40:37;2.37;;;1.63;;
5559;SDS011;2803;47.916;8.074;2024-01-30T03:43:04;2.37;;;1.40;;
5559;SDS011;2803;47.916;8.074;2024-01-30T03:45:31;4.57;;;1.67;;
5559;SDS011;2803;47.916;8.074;2024-01-30T03:47:59;3.40;;;1.50;;
5559;SDS011;2803;47.916;8.074;2024-01-30T03:50:25;5.63;;;1.90;;
5559;SDS011;2803;47.916;8.074;2024-01-30T03:52:53;2.40;;;1.70;;
5559;SDS011;2803;47.916;8.074;2024-01-30T03:55:19;2.70;;;1.40;;
5559;SDS011;2803;47.916;8.074;2024-01-30T03:57:46;3.43;;;1.60;;
5559;SDS011;2803;47.916;8.074;2024-01-30T04:00:13;3.63;;;1.30;;
5559;SDS011;2803;47.916;8.074;2024-01-30T04:02:39;1.83;;;1.20;;
5559;SDS011;2803;47.916;8.074;2024-01-30T04:05:08;3.43;;;1.50;;
5559;SDS011;2803;47.916;8.074;2024-01-30T04:07:34;2.77;;;1.50;;
5559;SDS011;2803;47.916;8.074;2024-01-30T04:10:01;2.00;;;1.77;;
5559;SDS011;2803;47.916;8.074;2024-01-30T04:12:30;2.63;;;1.20;;
5559;SDS011;2803;47.916;8.074;2024-01-30T04:14:57;1.80;;;1.43;;
5559;SDS011;2803;47.916;8.074;2024-01-30T04:17:23;1.47;;;1.10;;
5559;SDS011;2803;47.916;8.074;2024-01-30T04:19:50;2.40;;;1.40;;
5559;SDS011;2803;47.916;8.074;2024-01-30T04:22:18;1.83;;;1.30;;
5559;SDS011;2803;47.916;8.074;2024-01-30T04:24:44;2.30;;;1.10;;
5559;SDS011;2803;47.916;8.074;2024-01-30T04:27:11;2.43;;;1.33;;
5559;SDS011;2803;47.916;8.074;2024-01-30T04:29:38;2.87;;;1.17;;
5559;SDS011;2803;47.916;8.074;2024-01-30T04:32:05;2.60;;;1.50;;
5559;SDS011;2803;47.916;8.074;2024-01-30T04:34:31;1.97;;;1.50;;
5559;SDS011;2803;47.916;8.074;2024-01-30T04:36:58;2.07;;;1.43;;
5559;SDS011;2803;47.916;8.074;2024-01-30T04:39:26;3.43;;;1.73;;
5559;SDS011;2803;47.916;8.074;2024-01-30T04:41:53;2.60;;;1.20;;
5559;SDS011;2803;47.916;8.074;2024-01-30T04:44:19;1.80;;;1.43;;
5559;SDS011;2803;47.916;8.074;2024-01-30T04:46:46;2.00;;;1.33;;
5559;SDS011;2803;47.916;8.074;2024-01-30T04:49:12;1.90;;;1.50;;
5559;SDS011;2803;47.916;8.074;2024-01-30T04:51:39;3.53;;;1.40;;
5559;SDS011;2803;47.916;8.074;2024-01-30T04:54:07;2.13;;;1.30;;
5559;SDS011;2803;47.916;8.074;2024-01-30T04:56:34;4.40;;;1.77;;
5559;SDS011;2803;47.916;8.074;2024-01-30T04:59:01;4.53;;;1.60;;
5559;SDS011;2803;47.916;8.074;2024-01-30T05:01:28;1.73;;;1.33;;
5559;SDS011;2803;47.916;8.074;2024-01-30T05:03:55;3.17;;;1.80;;
5559;SDS011;2803;47.916;8.074;2024-01-30T05:06:25;1.67;;;1.10;;
5559;SDS011;2803;47.916;8.074;2024-01-30T05:08:51;1.97;;;1.30;;
5559;SDS011;2803;47.916;8.074;2024-01-30T05:11:18;3.63;;;1.90;;
5559;SDS011;2803;47.916;8.074;2024-01-30T05:13:46;3.37;;;1.70;;
5559;SDS011;2803;47.916;8.074;2024-01-30T05:16:13;2.10;;;1.40;;
5559;SDS011;2803;47.916;8.074;2024-01-30T05:18:39;2.90;;;1.40;;
5559;SDS011;2803;47.916;8.074;2024-01-30T05:21:06;1.73;;;1.33;;
5559;SDS011;2803;47.916;8.074;2024-01-30T05:23:32;3.03;;;1.60;;
5559;SDS011;2803;47.916;8.074;2024-01-30T05:25:59;3.43;;;2.10;;
5559;SDS011;2803;47.916;8.074;2024-01-30T05:28:26;2.07;;;1.30;;
5559;SDS011;2803;47.916;8.074;2024-01-30T05:30:53;3.17;;;1.60;;
5559;SDS011;2803;47.916;8.074;2024-01-30T05:33:20;2.40;;;1.20;;
5559;SDS011;2803;47.916;8.074;2024-01-30T05:35:47;3.40;;;1.53;;
5559;SDS011;2803;47.916;8.074;2024-01-30T05:38:15;2.53;;;1.63;;
5559;SDS011;2803;47.916;8.074;2024-01-30T05:40:42;6.93;;;1.67;;
5559;SDS011;2803;47.916;8.074;2024-01-30T05:43:08;2.73;;;1.77;;
5559;SDS011;2803;47.916;8.074;2024-01-30T05:45:35;3.40;;;1.60;;
5559;SDS011;2803;47.916;8.074;2024-01-30T05:48:03;3.60;;;1.60;;
5559;SDS011;2803;47.916;8.074;2024-01-30T05:50:30;2.50;;;1.60;;
5559;SDS011;2803;47.916;8.074;2024-01-30T05:52:57;4.87;;;1.77;;
5559;SDS011;2803;47.916;8.074;2024-01-30T05:55:23;4.17;;;1.80;;
5559;SDS011;2803;47.916;8.074;2024-01-30T05:57:50;2.93;;;1.60;;
5559;SDS011;2803;47.916;8.074;2024-01-30T06:00:17;2.87;;;1.47;;
5559;SDS011;2803;47.916;8.074;2024-01-30T06:02:44;2.80;;;2.00;;
5559;SDS011;2803;47.916;8.074;2024-01-30T06:05:12;5.33;;;2.00;;
5559;SDS011;2803;47.916;8.074;2024-01-30T06:07:39;4.13;;;1.60;;
5559;SDS011;2803;47.916;8.074;2024-01-30T06:10:05;2.10;;;1.57;;
5559;SDS011;2803;47.916;8.074;2024-01-30T06:12:33;4.17;;;1.80;;
5559;SDS011;2803;47.916;8.074;2024-01-30T06:15:00;3.03;;;1.43;;
5559;SDS011;2803;47.916;8.074;2024-01-30T06:17:27;2.70;;;2.03;;
5559;SDS011;2803;47.916;8.074;2024-01-30T06:19:54;3.10;;;1.90;;
5559;SDS011;2803;47.916;8.074;2024-01-30T06:22:22;4.30;;;2.50;;
5559;SDS011;2803;47.916;8.074;2024-01-30T06:24:49;4.83;;;2.90;;
5559;SDS011;2803;47.916;8.074;2024-01-30T06:27:15;4.90;;;3.43;;
5559;SDS011;2803;47.916;8.074;2024-01-30T06:29:42;8.40;;;4.50;;
5559;SDS011;2803;47.916;8.074;2024-01-30T06:32:09;6.33;;;4.00;;
5559;SDS011;2803;47.916;8.074;2024-01-30T06:34:36;9.13;;;3.93;;
5559;SDS011;2803;47.916;8.074;2024-01-30T06:37:05;5.43;;;3.60;;
5559;SDS011;2803;47.916;8.074;2024-01-30T06:39:33;5.73;;;3.30;;
5559;SDS011;2803;47.916;8.074;2024-01-30T06:41:59;5.53;;;3.30;;
5559;SDS011;2803;47.916;8.074;2024-01-30T06:44:26;5.07;;;3.33;;
5559;SDS011;2803;47.916;8.074;2024-01-30T06:46:53;5.10;;;3.00;;
5559;SDS011;2803;47.916;8.074;2024-01-30T06:49:19;3.23;;;2.10;;
5559;SDS011;2803;47.916;8.074;2024-01-30T06:51:46;6.23;;;1.87;;
5559;SDS011;2803;47.916;8.074;2024-01-30T06:54:13;2.57;;;1.63;;
5559;SDS011;2803;47.916;8.074;2024-01-30T06:56:41;2.13;;;1.50;;
5559;SDS011;2803;47.916;8.074;2024-01-30T06:59:07;1.87;;;1.57;;
5559;SDS011;2803;47.916;8.074;2024-01-30T07:01:34;3.13;;;1.83;;
5559;SDS011;2803;47.916;8.074;2024-01-30T07:04:01;2.80;;;1.90;;
5559;SDS011;2803;47.916;8.074;2024-01-30T07:06:27;2.97;;;1.83;;
5559;SDS011;2803;47.916;8.074;2024-01-30T07:08:54;3.77;;;1.87;;
5559;SDS011;2803;47.916;8.074;2024-01-30T07:11:21;4.80;;;1.73;;
5559;SDS011;2803;47.916;8.074;2024-01-30T07:13:50;5.13;;;1.87;;
5559;SDS011;2803;47.916;8.074;2024-01-30T07:16:16;3.33;;;1.90;;
5559;SDS011;2803;47.916;8.074;2024-01-30T07:18:43;3.20;;;2.10;;
5559;SDS011;2803;47.916;8.074;2024-01-30T07:21:10;3.00;;;1.90;;
5559;SDS011;2803;47.916;8.074;2024-01-30T07:23:37;3.93;;;1.80;;
5559;SDS011;2803;47.916;8.074;2024-01-30T07:26:04;4.40;;;2.30;;
5559;SDS011;2803;47.916;8.074;2024-01-30T07:28:31;4.80;;;2.77;;
5559;SDS011;2803;47.916;8.074;2024-01-30T07:30:59;4.73;;;2.40;;
5559;SDS011;2803;47.916;8.074;2024-01-30T07:33:26;4.67;;;2.70;;
5559;SDS011;2803;47.916;8.074;2024-01-30T07:35:53;5.13;;;3.03;;
5559;SDS011;2803;47.916;8.074;2024-01-30T07:38:19;6.17;;;2.70;;
5559;SDS011;2803;47.916;8.074;2024-01-30T07:40:46;4.53;;;2.33;;
5559;SDS011;2803;47.916;8.074;2024-01-30T07:43:12;3.67;;;2.40;;
5559;SDS011;2803;47.916;8.074;2024-01-30T07:45:39;5.83;;;2.53;;
5559;SDS011;2803;47.916;8.074;2024-01-30T07:48:07;4.00;;;2.00;;
5559;SDS011;2803;47.916;8.074;2024-01-30T07:50:34;5.50;;;2.40;;
5559;SDS011;2803;47.916;8.074;2024-01-30T07:53:00;7.07;;;2.80;;
5559;SDS011;2803;47.916;8.074;2024-01-30T07:55:28;3.23;;;2.13;;
5559;SDS011;2803;47.916;8.074;2024-01-30T07:57:56;7.00;;;2.37;;
5559;SDS011;2803;47.916;8.074;2024-01-30T08:00:23;7.70;;;2.43;;
5559;SDS011;2803;47.916;8.074;2024-01-30T08:02:50;6.47;;;2.57;;
5559;SDS011;2803;47.916;8.074;2024-01-30T08:05:20;4.70;;;2.73;;
5559;SDS011;2803;47.916;8.074;2024-01-30T08:07:47;8.53;;;3.00;;
5559;SDS011;2803;47.916;8.074;2024-01-30T08:10:14;3.77;;;2.40;;
5559;SDS011;2803;47.916;8.074;2024-01-30T08:12:41;9.20;;;2.53;;
5559;SDS011;2803;47.916;8.074;2024-01-30T08:15:07;6.63;;;2.70;;
5559;SDS011;2803;47.916;8.074;2024-01-30T08:17:34;6.60;;;3.03;;
5559;SDS011;2803;47.916;8.074;2024-01-30T08:20:01;5.70;;;2.80;;
5559;SDS011;2803;47.916;8.074;2024-01-30T08:22:30;13.43;;;2.97;;
5559;SDS011;2803;47.916;8.074;2024-01-30T08:24:57;9.13;;;3.77;;
5559;SDS011;2803;47.916;8.074;2024-01-30T08:27:24;7.13;;;3.10;;
5559;SDS011;2803;47.916;8.074;2024-01-30T08:29:50;5.73;;;2.80;;
5559;SDS011;2803;47.916;8.074;2024-01-30T08:32:17;5.93;;;3.20;;
5559;SDS011;2803;47.916;8.074;2024-01-30T08:34:43;4.60;;;2.23;;
5559;SDS011;2803;47.916;8.074;2024-01-30T08:37:10;4.90;;;2.70;;
5559;SDS011;2803;47.916;8.074;2024-01-30T08:39:38;8.13;;;3.63;;
5559;SDS011;2803;47.916;8.074;2024-01-30T08:42:04;5.27;;;2.90;;
5559;SDS011;2803;47.916;8.074;2024-01-30T08:44:33;8.10;;;3.17;;
5559;SDS011;2803;47.916;8.074;2024-01-30T08:46:59;4.70;;;2.60;;
5559;SDS011;2803;47.916;8.074;2024-01-30T08:49:26;5.30;;;2.63;;
5559;SDS011;2803;47.916;8.074;2024-01-30T08:51:53;7.50;;;3.30;;
5559;SDS011;2803;47.916;8.074;2024-01-30T08:54:20;7.47;;;3.57;;
5559;SDS011;2803;47.916;8.074;2024-01-30T08:56:48;4.50;;;2.67;;
5559;SDS011;2803;47.916;8.074;2024-01-30T08:59:14;7.70;;;3.10;;
5559;SDS011;2803;47.916;8.074;2024-01-30T09:01:41;6.03;;;2.40;;
5559;SDS011;2803;47.916;8.074;2024-01-30T09:04:07;4.30;;;2.30;;
5559;SDS011;2803;47.916;8.074;2024-01-30T09:06:34;6.20;;;2.53;;
5559;SDS011;2803;47.916;8.074;2024-01-30T09:09:01;6.47;;;2.83;;
5559;SDS011;2803;47.916;8.074;2024-01-30T09:11:27;9.70;;;2.97;;
5559;SDS011;2803;47.916;8.074;2024-01-30T09:13:55;5.70;;;3.03;;
5559;SDS011;2803;47.916;8.074;2024-01-30T09:16:22;8.47;;;2.80;;
5559;SDS011;2803;47.916;8.074;2024-01-30T09:18:48;5.17;;;2.80;;
5559;SDS011;2803;47.916;8.074;2024-01-30T09:21:15;5.27;;;2.80;;
5559;SDS011;2803;47.916;8.074;2024-01-30T09:23:41;8.70;;;3.10;;
5559;SDS011;2803;47.916;8.074;2024-01-30T09:26:08;11.60;;;3.83;;
5559;SDS011;2803;47.916;8.074;2024-01-30T09:28:35;10.90;;;2.47;;
5559;SDS011;2803;47.916;8.074;2024-01-30T09:31:03;8.90;;;3.43;;
5559;SDS011;2803;47.916;8.074;2024-01-30T09:33:29;10.80;;;4.17;;
5559;SDS011;2803;47.916;8.074;2024-01-30T09:35:56;9.70;;;3.70;;
5559;SDS011;2803;47.916;8.074;2024-01-30T09:38:22;8.30;;;4.03;;
5559;SDS011;2803;47.916;8.074;2024-01-30T09:40:51;9.47;;;4.40;;
5559;SDS011;2803;47.916;8.074;2024-01-30T09:43:21;9.70;;;3.30;;
5559;SDS011;2803;47.916;8.074;2024-01-30T09:45:49;8.70;;;3.87;;
5559;SDS011;2803;47.916;8.074;2024-01-30T09:48:18;9.67;;;4.53;;
5559;SDS011;2803;47.916;8.074;2024-01-30T09:50:45;15.03;;;5.00;;
5559;SDS011;2803;47.916;8.074;2024-01-30T09:53:12;12.90;;;4.30;;
5559;SDS011;2803;47.916;8.074;2024-01-30T09:55:40;12.10;;;4.10;;
5559;SDS011;2803;47.916;8.074;2024-01-30T09:58:11;14.43;;;4.47;;
5559;SDS011;2803;47.916;8.074;2024-01-30T10:00:38;12.27;;;3.83;;
5559;SDS011;2803;47.916;8.074;2024-01-30T10:03:04;11.83;;;4.60;;
5559;SDS011;2803;47.916;8.074;2024-01-30T10:05:32;25.87;;;4.63;;
5559;SDS011;2803;47.916;8.074;2024-01-30T10:08:05;9.50;;;4.23;;
5559;SDS011;2803;47.916;8.074;2024-01-30T10:10:33;15.33;;;4.90;;
5559;SDS011;2803;47.916;8.074;2024-01-30T10:12:59;17.10;;;5.13;;
5559;SDS011;2803;47.916;8.074;2024-01-30T10:15:26;16.03;;;4.47;;
5559;SDS011;2803;47.916;8.074;2024-01-30T10:17:54;8.03;;;4.00;;
5559;SDS011;2803;47.916;8.074;2024-01-30T10:20:21;10.57;;;4.87;;
5559;SDS011;2803;47.916;8.074;2024-01-30T10:22:49;9.87;;;3.90;;
5559;SDS011;2803;47.916;8.074;2024-01-30T10:25:17;7.87;;;3.60;;
5559;SDS011;2803;47.916;8.074;2024-01-30T10:27:44;17.70;;;5.80;;
5559;SDS011;2803;47.916;8.074;2024-01-30T10:30:11;9.07;;;4.60;;
5559;SDS011;2803;47.916;8.074;2024-01-30T10:32:38;8.60;;;4.50;;
5559;SDS011;2803;47.916;8.074;2024-01-30T10:35:05;8.53;;;4.10;;
5559;SDS011;2803;47.916;8.074;2024-01-30T10:37:31;11.70;;;5.13;;
5559;SDS011;2803;47.916;8.074;2024-01-30T10:40:00;12.90;;;4.33;;
5559;SDS011;2803;47.916;8.074;2024-01-30T10:42:31;11.47;;;3.90;;
5559;SDS011;2803;47.916;8.074;2024-01-30T10:45:00;11.30;;;4.23;;
5559;SDS011;2803;47.916;8.074;2024-01-30T10:47:32;9.53;;;3.93;;
5559;SDS011;2803;47.916;8.074;2024-01-30T10:50:01;7.60;;;3.70;;
5559;SDS011;2803;47.916;8.074;2024-01-30T10:52:29;11.83;;;4.17;;
5559;SDS011;2803;47.916;8.074;2024-01-30T10:54:56;13.10;;;3.60;;
5559;SDS011;2803;47.916;8.074;2024-01-30T10:57:25;6.27;;;3.57;;
5559;SDS011;2803;47.916;8.074;2024-01-30T10:59:53;11.97;;;4.27;;
5559;SDS011;2803;47.916;8.074;2024-01-30T11:02:22;11.00;;;3.17;;
5559;SDS011;2803;47.916;8.074;2024-01-30T11:04:54;11.80;;;4.70;;
5559;SDS011;2803;47.916;8.074;2024-01-30T11:07:24;10.60;;;3.93;;
5559;SDS011;2803;47.916;8.074;2024-01-30T11:09:51;11.97;;;3.00;;
5559;SDS011;2803;47.916;8.074;2024-01-30T11:12:21;8.73;;;3.77;;
5559;SDS011;2803;47.916;8.074;2024-01-30T11:14:50;9.50;;;3.50;;
5559;SDS011;2803;47.916;8.074;2024-01-30T11:17:39;7.90;;;4.10;;
5559;SDS011;2803;47.916;8.074;2024-01-30T11:20:09;8.50;;;3.83;;
5559;SDS011;2803;47.916;8.074;2024-01-30T11:22:40;9.27;;;4.47;;
5559;SDS011;2803;47.916;8.074;2024-01-30T11:25:10;8.87;;;3.13;;
5559;SDS011;2803;47.916;8.074;2024-01-30T11:27:38;15.97;;;4.20;;
5559;SDS011;2803;47.916;8.074;2024-01-30T11:30:06;10.40;;;3.87;;
5559;SDS011;2803;47.916;8.074;2024-01-30T11:32:34;12.67;;;3.73;;
5559;SDS011;2803;47.916;8.074;2024-01-30T11:35:01;9.70;;;4.23;;
5559;SDS011;2803;47.916;8.074;2024-01-30T11:37:30;14.60;;;4.30;;
5559;SDS011;2803;47.916;8.074;2024-01-30T11:39:57;9.43;;;3.43;;
5559;SDS011;2803;47.916;8.074;2024-01-30T11:42:25;12.07;;;4.30;;
5559;SDS011;2803;47.916;8.074;2024-01-30T11:44:53;9.43;;;3.00;;
5559;SDS011;2803;47.916;8.074;2024-01-30T11:47:21;10.37;;;3.87;;
5559;SDS011;2803;47.916;8.074;2024-01-30T11:49:48;6.97;;;3.50;;
5559;SDS011;2803;47.916;8.074;2024-01-30T11:52:15;12.10;;;4.20;;
5559;SDS011;2803;47.916;8.074;2024-01-30T11:54:42;7.10;;;3.77;;
5559;SDS011;2803;47.916;8.074;2024-01-30T11:57:09;12.10;;;3.27;;
5559;SDS011;2803;47.916;8.074;2024-01-30T11:59:35;5.57;;;2.40;;
5559;SDS011;2803;47.916;8.074;2024-01-30T12:02:02;5.50;;;2.07;;
5559;SDS011;2803;47.916;8.074;2024-01-30T12:04:30;10.53;;;2.10;;
5559;SDS011;2803;47.916;8.074;2024-01-30T12:06:57;2.53;;;2.03;;
5559;SDS011;2803;47.916;8.074;2024-01-30T12:09:23;4.77;;;2.07;;
5559;SDS011;2803;47.916;8.074;2024-01-30T12:11:50;4.70;;;2.30;;
5559;SDS011;2803;47.916;8.074;2024-01-30T12:14:17;3.17;;;1.90;;
5559;SDS011;2803;47.916;8.074;2024-01-30T12:16:47;6.67;;;2.60;;
5559;SDS011;2803;47.916;8.074;2024-01-30T12:19:20;8.73;;;1.97;;
5559;SDS011;2803;47.916;8.074;2024-01-30T12:21:53;5.70;;;2.40;;
5559;SDS011;2803;47.916;8.074;2024-01-30T12:24:20;10.50;;;2.50;;
5559;SDS011;2803;47.916;8.074;2024-01-30T12:26:47;3.17;;;1.97;;
5559;SDS011;2803;47.916;8.074;2024-01-30T12:29:14;2.80;;;1.60;;
5559;SDS011;2803;47.916;8.074;2024-01-30T12:31:41;4.27;;;1.80;;
5559;SDS011;2803;47.916;8.074;2024-01-30T12:34:09;4.40;;;1.60;;
5559;SDS011;2803;47.916;8.074;2024-01-30T12:36:35;6.10;;;2.43;;
5559;SDS011;2803;47.916;8.074;2024-01-30T12:39:03;3.37;;;1.50;;
5559;SDS011;2803;47.916;8.074;2024-01-30T12:41:30;3.63;;;1.80;;
5559;SDS011;2803;47.916;8.074;2024-01-30T12:43:57;3.40;;;2.07;;
5559;SDS011;2803;47.916;8.074;2024-01-30T12:46:25;3.10;;;1.93;;
5559;SDS011;2803;47.916;8.074;2024-01-30T12:48:53;3.60;;;2.13;;
5559;SDS011;2803;47.916;8.074;2024-01-30T12:51:20;2.57;;;1.83;;
5559;SDS011;2803;47.916;8.074;2024-01-30T12:53:47;4.40;;;1.60;;
5559;SDS011;2803;47.916;8.074;2024-01-30T12:56:15;4.00;;;1.90;;
5559;SDS011;2803;47.916;8.074;2024-01-30T12:58:42;6.80;;;1.90;;
5559;SDS011;2803;47.916;8.074;2024-01-30T13:01:09;3.30;;;2.07;;
5559;SDS011;2803;47.916;8.074;2024-01-30T13:03:35;3.50;;;1.90;;
5559;SDS011;2803;47.916;8.074;2024-01-30T13:06:02;13.73;;;2.17;;
5559;SDS011;2803;47.916;8.074;2024-01-30T13:08:29;13.63;;;2.70;;
5559;SDS011;2803;47.916;8.074;2024-01-30T13:10:55;3.20;;;1.77;;
5559;SDS011;2803;47.916;8.074;2024-01-30T13:13:23;18.67;;;3.70;;
5559;SDS011;2803;47.916;8.074;2024-01-30T13:15:50;10.53;;;2.37;;
5559;SDS011;2803;47.916;8.074;2024-01-30T13:18:16;4.90;;;2.13;;
5559;SDS011;2803;47.916;8.074;2024-01-30T13:20:43;4.10;;;1.97;;
5559;SDS011;2803;47.916;8.074;2024-01-30T13:23:10;5.77;;;1.70;;
5559;SDS011;2803;47.916;8.074;2024-01-30T13:25:36;5.37;;;1.70;;
5559;SDS011;2803;47.916;8.074;2024-01-30T13:28:03;4.23;;;2.20;;
5559;SDS011;2803;47.916;8.074;2024-01-30T13:30:31;10.30;;;1.93;;
5559;SDS011;2803;47.916;8.074;2024-01-30T13:32:58;11.40;;;2.10;;
5559;SDS011;2803;47.916;8.074;2024-01-30T13:35:24;12.13;;;2.50;;
5559;SDS011;2803;47.916;8.074;2024-01-30T13:37:51;7.93;;;1.80;;
5559;SDS011;2803;47.916;8.074;2024-01-30T13:40:17;15.00;;;2.57;;
5559;SDS011;2803;47.916;8.074;2024-01-30T13:42:44;4.50;;;2.30;;
5559;SDS011;2803;47.916;8.074;2024-01-30T13:45:10;5.33;;;2.10;;
5559;SDS011;2803;47.916;8.074;2024-01-30T13:47:38;9.93;;;2.27;;
5559;SDS011;2803;47.916;8.074;2024-01-30T13:50:05;11.00;;;2.27;;
5559;SDS011;2803;47.916;8.074;2024-01-30T13:52:33;6.63;;;2.57;;
5559;SDS011;2803;47.916;8.074;2024-01-30T13:54:59;8.17;;;2.07;;
5559;SDS011;2803;47.916;8.074;2024-01-30T13:57:26;4.97;;;2.20;;
5559;SDS011;2803;47.916;8.074;2024-01-30T13:59:53;7.67;;;2.37;;
5559;SDS011;2803;47.916;8.074;2024-01-30T14:02:19;6.73;;;2.93;;
5559;SDS011;2803;47.916;8.074;2024-01-30T14:04:47;6.70;;;2.50;;
5559;SDS011;2803;47.916;8.074;2024-01-30T14:07:13;6.23;;;2.30;;
5559;SDS011;2803;47.916;8.074;2024-01-30T14:09:40;4.30;;;2.10;;
5559;SDS011;2803;47.916;8.074;2024-01-30T14:12:07;7.40;;;2.83;;
5559;SDS011;2803;47.916;8.074;2024-01-30T14:14:33;4.20;;;2.23;;
5559;SDS011;2803;47.916;8.074;2024-01-30T14:17:00;8.70;;;2.83;;
5559;SDS011;2803;47.916;8.074;2024-01-30T14:19:27;4.90;;;2.50;;
5559;SDS011;2803;47.916;8.074;2024-01-30T14:21:54;7.73;;;2.40;;
5559;SDS011;2803;47.916;8.074;2024-01-30T14:24:21;4.90;;;2.27;;
5559;SDS011;2803;47.916;8.074;2024-01-30T14:26:48;5.93;;;2.40;;
5559;SDS011;2803;47.916;8.074;2024-01-30T14:29:14;7.50;;;2.40;;
5559;SDS011;2803;47.916;8.074;2024-01-30T14:31:41;4.60;;;2.40;;
5559;SDS011;2803;47.916;8.074;2024-01-30T14:34:07;7.30;;;2.43;;
5559;SDS011;2803;47.916;8.074;2024-01-30T14:36:35;7.57;;;2.40;;
5559;SDS011;2803;47.916;8.074;2024-01-30T14:39:03;3.23;;;2.13;;
5559;SDS011;2803;47.916;8.074;2024-01-30T14:41:31;7.87;;;2.30;;
5559;SDS011;2803;47.916;8.074;2024-01-30T14:43:58;5.60;;;2.60;;
5559;SDS011;2803;47.916;8.074;2024-01-30T14:46:24;5.67;;;2.07;;
5559;SDS011;2803;47.916;8.074;2024-01-30T14:48:52;2.77;;;1.97;;
5559;SDS011;2803;47.916;8.074;2024-01-30T14:51:19;6.33;;;2.17;;
5559;SDS011;2803;47.916;8.074;2024-01-30T14:53:46;6.10;;;2.80;;
5559;SDS011;2803;47.916;8.074;2024-01-30T14:56:13;7.67;;;2.53;;
5559;SDS011;2803;47.916;8.074;2024-01-30T14:58:40;13.40;;;2.80;;
5559;SDS011;2803;47.916;8.074;2024-01-30T15:01:08;5.70;;;2.63;;
5559;SDS011;2803;47.916;8.074;2024-01-30T15:03:35;5.03;;;2.53;;
5559;SDS011;2803;47.916;8.074;2024-01-30T15:06:01;4.67;;;2.43;;
5559;SDS011;2803;47.916;8.074;2024-01-30T15:08:29;5.67;;;2.53;;
5559;SDS011;2803;47.916;8.074;2024-01-30T15:10:56;6.03;;;2.20;;
5559;SDS011;2803;47.916;8.074;2024-01-30T15:13:24;3.53;;;2.03;;